createdAt,value
2023-03-04T00:02:21.228Z,33.25
2023-03-04T00:04:47.972Z,36.38
2023-03-04T00:07:18.825Z,36.00
2023-03-04T00:09:46.480Z,40.35
2023-03-04T00:12:13.830Z,39.80
2023-03-04T00:14:41.176Z,40.97
2023-03-04T00:17:08.278Z,39.65
2023-03-04T00:19:35.547Z,36.38
2023-03-04T00:22:03.981Z,34.25
2023-03-04T00:24:31.548Z,40.05
2023-03-04T00:26:58.265Z,35.10
2023-03-04T00:29:25.054Z,36.85
2023-03-04T00:31:51.925Z,40.03
2023-03-04T00:34:18.762Z,35.00
2023-03-04T00:36:45.609Z,35.05
2023-03-04T00:39:13.085Z,36.42
2023-03-04T00:41:39.984Z,35.92
2023-03-04T00:44:06.837Z,41.50
2023-03-04T00:46:33.519Z,33.67
2023-03-04T00:49:00.137Z,37.33
2023-03-04T00:51:26.820Z,36.92
2023-03-04T00:53:53.541Z,40.53
2023-03-04T00:56:20.348Z,38.50
2023-03-04T00:58:47.072Z,34.65
2023-03-04T01:01:13.898Z,38.83
2023-03-04T01:03:41.471Z,44.90
2023-03-04T01:06:08.678Z,36.90
2023-03-04T01:08:35.659Z,36.45
2023-03-04T01:11:02.481Z,35.13
2023-03-04T01:13:29.249Z,36.30
2023-03-04T01:15:56.138Z,35.53
2023-03-04T01:18:23.094Z,39.83
2023-03-04T01:20:50.556Z,35.67
2023-03-04T01:23:17.398Z,39.05
2023-03-04T01:25:44.085Z,36.65
2023-03-04T01:28:11.380Z,36.95
2023-03-04T01:30:38.220Z,38.20
2023-03-04T01:33:04.945Z,36.28
2023-03-04T01:35:31.707Z,37.25
2023-03-04T01:37:58.520Z,37.38
2023-03-04T01:40:25.471Z,40.70
2023-03-04T01:42:52.225Z,42.75
2023-03-04T01:45:20.134Z,40.00
2023-03-04T01:47:49.073Z,42.15
2023-03-04T01:50:32.809Z,38.83
2023-03-04T01:53:00.007Z,37.35
2023-03-04T01:55:27.270Z,38.28
2023-03-04T01:57:54.096Z,38.58
2023-03-04T02:00:28.962Z,40.97
2023-03-04T02:03:00.003Z,38.60
2023-03-04T02:05:27.709Z,40.05
2023-03-04T02:07:56.036Z,38.38
2023-03-04T02:10:23.183Z,34.85
2023-03-04T02:12:50.828Z,39.75
2023-03-04T02:15:17.831Z,45.85
2023-03-04T02:17:44.819Z,42.40
2023-03-04T02:20:14.398Z,40.15
2023-03-04T02:23:03.959Z,38.97
2023-03-04T02:25:46.238Z,40.45
2023-03-04T02:28:13.337Z,38.67
2023-03-04T02:30:40.121Z,40.08
2023-03-04T02:33:10.390Z,40.28
2023-03-04T02:35:37.174Z,41.40
2023-03-04T02:38:03.890Z,38.03
2023-03-04T02:40:33.168Z,43.42
2023-03-04T02:43:00.864Z,40.80
2023-03-04T02:45:51.397Z,40.80
2023-03-04T02:48:21.294Z,43.47
2023-03-04T02:50:52.298Z,41.60
2023-03-04T02:53:20.828Z,38.70
2023-03-04T02:55:48.321Z,43.15
2023-03-04T02:58:15.252Z,40.17
2023-03-04T03:00:42.725Z,43.92
2023-03-04T03:03:09.744Z,44.83
2023-03-04T03:05:38.031Z,40.60
2023-03-04T03:08:05.164Z,43.63
2023-03-04T03:10:32.275Z,38.45
2023-03-04T03:12:59.014Z,42.75
2023-03-04T03:15:25.775Z,44.08
2023-03-04T03:17:52.875Z,41.70
2023-03-04T03:20:20.446Z,41.95
2023-03-04T03:22:47.455Z,41.63
2023-03-04T03:25:15.409Z,42.38
2023-03-04T03:27:42.899Z,41.42
2023-03-04T03:30:12.516Z,39.70
2023-03-04T03:32:39.336Z,43.75
2023-03-04T03:35:06.329Z,49.83
2023-03-04T03:37:33.350Z,43.00
2023-03-04T03:40:00.164Z,39.63
2023-03-04T03:42:27.098Z,45.55
2023-03-04T03:44:53.893Z,44.28
2023-03-04T03:47:20.652Z,40.13
2023-03-04T03:49:47.415Z,40.60
2023-03-04T03:52:14.241Z,42.67
2023-03-04T03:54:41.079Z,51.67
2023-03-04T03:57:07.748Z,41.70
2023-03-04T03:59:34.405Z,44.25
2023-03-04T04:02:01.317Z,46.40
2023-03-04T04:04:28.112Z,41.90
2023-03-04T04:06:54.902Z,43.47
2023-03-04T04:09:21.689Z,42.72
2023-03-04T04:11:48.421Z,45.50
2023-03-04T04:14:15.184Z,46.47
2023-03-04T04:16:42.203Z,42.47
2023-03-04T04:19:16.236Z,45.22
2023-03-04T04:21:42.896Z,43.33
2023-03-04T04:24:09.684Z,43.33
2023-03-04T04:26:36.412Z,42.50
2023-03-04T04:29:03.115Z,42.78
2023-03-04T04:31:29.819Z,46.88
2023-03-04T04:33:56.544Z,46.58
2023-03-04T04:36:23.182Z,44.85
2023-03-04T04:38:49.927Z,46.08
2023-03-04T04:41:28.610Z,48.20
2023-03-04T04:43:55.470Z,47.55
2023-03-04T04:46:22.374Z,42.78
2023-03-04T04:48:49.563Z,44.35
2023-03-04T04:51:16.365Z,46.88
2023-03-04T04:53:43.343Z,53.35
2023-03-04T04:56:16.426Z,51.35
2023-03-04T04:58:44.069Z,43.00
2023-03-04T05:01:10.794Z,45.45
2023-03-04T05:03:38.106Z,46.65
2023-03-04T05:06:07.415Z,50.15
2023-03-04T05:08:35.123Z,49.88
2023-03-04T05:11:02.474Z,46.97
2023-03-04T05:13:29.281Z,44.42
2023-03-04T05:15:57.221Z,41.55
2023-03-04T05:18:25.427Z,43.50
2023-03-04T05:20:57.861Z,43.08
2023-03-04T05:23:25.705Z,39.53
2023-03-04T05:25:52.995Z,39.65
2023-03-04T05:28:19.965Z,47.38
2023-03-04T05:30:46.951Z,45.08
2023-03-04T05:33:15.476Z,41.15
2023-03-04T05:35:43.210Z,46.63
2023-03-04T05:38:13.027Z,44.42
2023-03-04T05:40:41.322Z,46.38
2023-03-04T05:43:08.470Z,42.28
2023-03-04T05:45:35.503Z,39.65
2023-03-04T05:48:03.149Z,47.17
2023-03-04T05:50:30.315Z,45.45
2023-03-04T05:52:57.096Z,42.47
2023-03-04T05:55:24.197Z,46.33
2023-03-04T05:57:51.230Z,43.17
2023-03-04T06:00:18.190Z,42.40
2023-03-04T06:02:45.492Z,43.95
2023-03-04T06:05:14.150Z,50.35
2023-03-04T06:07:43.148Z,47.58
2023-03-04T06:10:10.783Z,47.20
2023-03-04T06:12:37.578Z,48.88
2023-03-04T06:15:06.018Z,48.10
2023-03-04T06:17:32.966Z,48.03
2023-03-04T06:19:59.676Z,52.15
2023-03-04T06:22:26.448Z,45.15
2023-03-04T06:24:53.207Z,50.83
2023-03-04T06:27:20.052Z,47.72
2023-03-04T06:29:46.771Z,54.40
2023-03-04T06:32:13.453Z,48.60
2023-03-04T06:34:40.343Z,45.70
2023-03-04T06:37:06.989Z,46.17
2023-03-04T06:39:33.752Z,48.28
2023-03-04T06:42:00.724Z,46.90
2023-03-04T06:44:27.419Z,45.47
2023-03-04T06:46:54.167Z,50.40
2023-03-04T06:49:20.904Z,48.13
2023-03-04T06:51:47.686Z,49.05
2023-03-04T06:54:14.466Z,49.67
2023-03-04T06:56:41.190Z,51.80
2023-03-04T06:59:07.915Z,53.50
2023-03-04T07:01:35.095Z,47.60
2023-03-04T07:04:02.639Z,51.03
2023-03-04T07:06:30.385Z,46.47
2023-03-04T07:08:58.153Z,48.75
2023-03-04T07:11:25.295Z,48.85
2023-03-04T07:13:52.124Z,47.03
2023-03-04T07:16:21.749Z,46.00
2023-03-04T07:18:48.718Z,45.88
2023-03-04T07:21:16.638Z,53.88
2023-03-04T07:23:43.988Z,47.90
2023-03-04T07:26:10.922Z,49.97
2023-03-04T07:28:37.966Z,50.42
2023-03-04T07:31:13.964Z,43.03
2023-03-04T07:33:40.855Z,50.78
2023-03-04T07:36:07.717Z,43.42
2023-03-04T07:38:34.576Z,47.97
2023-03-04T07:41:01.283Z,46.75
2023-03-04T07:43:28.251Z,47.72
2023-03-04T07:46:01.169Z,47.28
2023-03-04T07:48:28.378Z,47.17
2023-03-04T07:51:04.343Z,45.55
2023-03-04T07:53:32.439Z,49.08
2023-03-04T07:56:01.037Z,47.97
2023-03-04T07:58:29.464Z,47.20
2023-03-04T08:00:56.266Z,43.30
2023-03-04T08:03:23.308Z,43.78
2023-03-04T08:05:50.484Z,49.03
2023-03-04T08:08:17.954Z,44.28
2023-03-04T08:10:45.221Z,45.35
2023-03-04T08:13:12.042Z,45.28
2023-03-04T08:15:42.896Z,50.45
2023-03-04T08:18:09.709Z,40.80
2023-03-04T08:20:36.494Z,46.90
2023-03-04T08:23:03.503Z,46.70
2023-03-04T08:25:30.193Z,52.58
2023-03-04T08:27:56.928Z,46.15
2023-03-04T08:30:23.706Z,46.35
2023-03-04T08:32:50.504Z,44.67
2023-03-04T08:35:17.557Z,46.65
2023-03-04T08:37:45.074Z,48.92
2023-03-04T08:40:14.561Z,41.80
2023-03-04T08:42:42.231Z,52.55
2023-03-04T08:45:10.125Z,48.25
2023-03-04T08:47:37.784Z,44.20
2023-03-04T08:50:06.142Z,50.80
2023-03-04T08:52:33.060Z,45.92
2023-03-04T08:54:59.755Z,50.70
2023-03-04T08:57:26.574Z,44.15
2023-03-04T08:59:53.334Z,48.75
2023-03-04T09:02:20.292Z,45.97
2023-03-04T09:04:47.093Z,46.83
2023-03-04T09:07:14.267Z,49.83
2023-03-04T09:09:41.164Z,50.58
2023-03-04T09:12:08.485Z,52.88
2023-03-04T09:14:35.921Z,48.45
2023-03-04T09:17:06.249Z,51.45
2023-03-04T09:19:33.124Z,51.45
2023-03-04T09:21:59.873Z,50.92
2023-03-04T09:24:26.714Z,52.03
2023-03-04T09:26:54.041Z,50.63
2023-03-04T09:29:21.234Z,50.92
2023-03-04T09:31:48.068Z,49.53
2023-03-04T09:34:14.890Z,49.40
2023-03-04T09:36:41.614Z,55.22
2023-03-04T09:39:08.496Z,51.03
2023-03-04T09:42:06.389Z,53.88
2023-03-04T09:44:43.188Z,50.88
2023-03-04T09:47:19.951Z,48.67
2023-03-04T09:49:57.525Z,52.22
2023-03-04T09:53:03.493Z,52.92
2023-03-04T09:55:33.027Z,55.47
2023-03-04T09:58:22.335Z,50.95
2023-03-04T10:00:58.322Z,54.90
2023-03-04T10:03:33.111Z,53.85
2023-03-04T10:06:07.273Z,52.90
2023-03-04T10:08:56.289Z,57.67
2023-03-04T10:11:44.960Z,56.50
2023-03-04T10:14:14.511Z,57.55
2023-03-04T10:16:51.648Z,65.30
2023-03-04T10:19:35.266Z,58.42
2023-03-04T10:22:03.702Z,54.03
2023-03-04T10:24:33.404Z,53.45
2023-03-04T10:27:07.371Z,54.42
2023-03-04T10:29:34.664Z,60.45
2023-03-04T10:32:01.592Z,50.10
2023-03-04T10:34:28.512Z,60.22
2023-03-04T10:36:55.406Z,57.72
2023-03-04T10:39:37.173Z,52.15
2023-03-04T10:42:07.348Z,55.28
2023-03-04T10:44:38.057Z,54.97
2023-03-04T10:47:10.683Z,53.53
2023-03-04T10:49:52.339Z,51.70
2023-03-04T10:52:27.909Z,60.17
2023-03-04T10:57:34.023Z,56.85
2023-03-04T11:00:26.260Z,61.13
2023-03-04T11:02:53.085Z,56.92
2023-03-04T11:05:25.642Z,57.00
2023-03-04T11:07:56.971Z,54.35
2023-03-04T11:10:30.297Z,58.42
2023-03-04T11:13:03.597Z,53.05
2023-03-04T11:16:18.435Z,54.97
2023-03-04T11:18:52.326Z,53.25
2023-03-04T11:21:24.453Z,52.38
2023-03-04T11:23:57.217Z,53.33
2023-03-04T11:26:33.951Z,49.50
2023-03-04T11:29:18.178Z,54.25
2023-03-04T11:32:01.023Z,54.83
2023-03-04T11:34:37.170Z,46.53
2023-03-04T11:37:09.951Z,49.63
2023-03-04T11:39:41.683Z,48.38
2023-03-04T11:42:46.071Z,43.60
2023-03-04T11:45:27.825Z,41.83
2023-03-04T11:48:29.586Z,49.40
2023-03-04T11:51:35.280Z,46.88
2023-03-04T11:54:30.432Z,45.85
2023-03-04T11:57:23.033Z,38.90
2023-03-04T12:00:18.320Z,41.80
2023-03-04T12:03:16.079Z,43.58
2023-03-04T12:06:18.380Z,41.47
2023-03-04T12:08:51.057Z,42.30
2023-03-04T12:11:56.450Z,35.90
2023-03-04T12:14:29.718Z,36.03
2023-03-04T12:17:23.948Z,36.55
2023-03-04T12:20:16.881Z,37.28
2023-03-04T12:22:57.652Z,46.00
2023-03-04T12:25:33.807Z,33.08
2023-03-04T12:28:27.610Z,35.30
2023-03-04T12:31:22.466Z,33.22
2023-03-04T12:34:01.395Z,36.80
2023-03-04T12:36:43.147Z,32.90
2023-03-04T12:39:31.206Z,34.47
2023-03-04T12:42:16.335Z,36.67
2023-03-04T12:45:23.364Z,33.92
2023-03-04T12:48:08.907Z,33.22
2023-03-04T12:50:53.604Z,33.58
2023-03-04T12:53:39.276Z,29.70
2023-03-04T12:56:09.970Z,31.80
2023-03-04T12:58:37.537Z,31.20
2023-03-04T13:01:24.776Z,32.00
2023-03-04T13:03:51.579Z,34.30
2023-03-04T13:06:43.385Z,27.42
2023-03-04T13:09:23.060Z,31.60
2023-03-04T13:11:49.808Z,30.77
2023-03-04T13:14:18.171Z,28.55
2023-03-04T13:16:49.150Z,28.35
2023-03-04T13:19:57.085Z,27.67
2023-03-04T13:22:27.927Z,28.25
2023-03-04T13:24:56.286Z,30.63
2023-03-04T13:27:50.083Z,28.30
2023-03-04T13:30:32.104Z,27.33
2023-03-04T13:33:19.116Z,25.00
2023-03-04T13:35:55.034Z,27.00
2023-03-04T13:38:41.466Z,26.35
2023-03-04T13:41:14.076Z,30.00
2023-03-04T13:43:45.559Z,25.60
2023-03-04T13:46:23.480Z,27.27
2023-03-04T13:48:50.234Z,30.25
2023-03-04T13:51:29.770Z,27.60
2023-03-04T13:54:00.309Z,31.00
2023-03-04T13:56:37.624Z,30.10
2023-03-04T13:59:07.496Z,28.52
2023-03-04T14:01:52.627Z,30.20
2023-03-04T14:04:21.530Z,25.92
2023-03-04T14:06:54.072Z,28.40
2023-03-04T14:09:39.035Z,34.13
2023-03-04T14:12:15.454Z,29.55
2023-03-04T14:14:44.766Z,28.08
2023-03-04T14:17:22.053Z,27.02
2023-03-04T14:19:52.059Z,28.27
2023-03-04T14:22:29.845Z,25.65
2023-03-04T14:25:02.778Z,26.05
2023-03-04T14:27:32.993Z,25.15
2023-03-04T14:30:02.008Z,25.77
2023-03-04T14:32:29.964Z,28.67
2023-03-04T14:35:02.517Z,31.73
2023-03-04T14:37:58.150Z,30.98
2023-03-04T14:40:29.215Z,27.33
2023-03-04T14:43:09.202Z,29.67
2023-03-04T14:45:36.089Z,35.85
2023-03-04T14:48:06.690Z,28.38
2023-03-04T14:50:35.705Z,31.15
2023-03-04T14:53:17.734Z,30.35
2023-03-04T14:55:59.532Z,30.08
2023-03-04T14:58:32.675Z,35.28
2023-03-04T15:01:18.993Z,31.27
2023-03-04T15:04:02.738Z,34.58
2023-03-04T15:06:32.277Z,28.20
2023-03-04T15:09:08.764Z,27.58
2023-03-04T15:11:49.037Z,34.92
2023-03-04T15:14:41.598Z,29.17
2023-03-04T15:17:42.655Z,30.30
2023-03-04T15:20:09.355Z,28.83
2023-03-04T15:22:56.545Z,35.38
2023-03-04T15:25:23.534Z,30.67
2023-03-04T15:27:51.121Z,27.90
2023-03-04T15:30:18.274Z,29.45
2023-03-04T15:32:44.938Z,26.50
2023-03-04T15:35:16.184Z,31.02
2023-03-04T15:37:44.187Z,32.58
2023-03-04T15:40:33.872Z,30.30
2023-03-04T15:43:03.358Z,30.45
2023-03-04T15:45:38.491Z,27.02
2023-03-04T15:48:13.790Z,30.55
2023-03-04T15:51:01.533Z,32.08
2023-03-04T15:53:39.669Z,31.98
2023-03-04T15:56:11.830Z,27.33
2023-03-04T15:58:39.446Z,27.73
2023-03-04T16:01:06.260Z,29.33
2023-03-04T16:03:32.929Z,26.85
2023-03-04T16:05:59.879Z,29.13
2023-03-04T16:08:26.856Z,31.23
2023-03-04T16:10:54.659Z,25.85
2023-03-04T16:13:23.846Z,27.95
2023-03-04T16:15:50.738Z,26.80
2023-03-04T16:18:17.900Z,27.58
2023-03-04T16:20:49.845Z,27.20
2023-03-04T16:23:24.527Z,33.60
2023-03-04T16:25:55.470Z,27.43
2023-03-04T16:28:22.623Z,30.20
2023-03-04T16:30:49.834Z,27.95
2023-03-04T16:33:16.554Z,29.30
2023-03-04T16:35:45.008Z,29.35
2023-03-04T16:38:22.251Z,31.48
2023-03-04T16:40:49.563Z,27.95
2023-03-04T16:43:16.281Z,32.30
2023-03-04T16:45:43.130Z,31.42
2023-03-04T16:48:10.124Z,32.25
2023-03-04T16:50:37.870Z,35.03
2023-03-04T16:53:05.655Z,28.65
2023-03-04T16:55:32.843Z,28.30
2023-03-04T16:57:59.606Z,28.45
2023-03-04T17:00:28.953Z,25.95
2023-03-04T17:02:58.395Z,27.65
2023-03-04T17:05:28.472Z,33.38
2023-03-04T17:07:55.451Z,25.98
2023-03-04T17:10:23.603Z,27.10
2023-03-04T17:12:52.006Z,31.35
2023-03-04T17:15:19.320Z,33.30
2023-03-04T17:17:46.264Z,33.50
2023-03-04T17:20:17.837Z,31.08
2023-03-04T17:22:45.323Z,30.08
2023-03-04T17:25:12.678Z,29.15
2023-03-04T17:27:39.513Z,27.85
2023-03-04T17:30:08.953Z,32.10
2023-03-04T17:32:38.968Z,30.05
2023-03-04T17:35:08.039Z,32.97
2023-03-04T17:37:35.551Z,30.65
2023-03-04T17:40:08.631Z,32.50
2023-03-04T17:42:35.517Z,29.75
2023-03-04T17:45:02.334Z,28.90
2023-03-04T17:47:29.131Z,28.80
2023-03-04T17:49:55.800Z,30.98
2023-03-04T17:52:22.545Z,31.70
2023-03-04T17:54:49.362Z,30.48
2023-03-04T17:57:16.170Z,30.65
2023-03-04T17:59:42.922Z,33.53
2023-03-04T18:02:15.069Z,30.83
2023-03-04T18:04:42.732Z,31.85
2023-03-04T18:07:09.526Z,29.73
2023-03-04T18:09:36.262Z,34.75
2023-03-04T18:12:03.099Z,31.92
2023-03-04T18:14:29.913Z,39.17
2023-03-04T18:16:56.753Z,34.42
2023-03-04T18:19:23.553Z,35.30
2023-03-04T18:21:50.404Z,35.03
2023-03-04T18:24:17.154Z,33.38
2023-03-04T18:26:43.959Z,32.20
2023-03-04T18:29:10.813Z,31.20
2023-03-04T18:31:37.671Z,34.50
2023-03-04T18:34:05.070Z,35.30
2023-03-04T18:36:32.637Z,35.97
2023-03-04T18:38:59.740Z,39.53
2023-03-04T18:41:27.859Z,37.40
2023-03-04T18:43:55.360Z,35.80
2023-03-04T18:46:53.498Z,36.15
2023-03-04T18:49:21.080Z,31.73
2023-03-04T18:51:47.856Z,35.00
2023-03-04T18:54:14.682Z,36.03
2023-03-04T18:56:48.225Z,37.17
2023-03-04T18:59:22.921Z,36.92
2023-03-04T19:01:51.872Z,44.87
2023-03-04T19:04:21.509Z,40.10
2023-03-04T19:06:48.409Z,41.70
2023-03-04T19:09:15.256Z,40.10
2023-03-04T19:11:41.956Z,37.90
2023-03-04T19:14:08.853Z,38.53
2023-03-04T19:16:35.792Z,39.72
2023-03-04T19:19:02.609Z,38.80
2023-03-04T19:21:29.272Z,35.95
2023-03-04T19:23:56.059Z,39.53
2023-03-04T19:26:22.763Z,39.72
2023-03-04T19:28:49.721Z,38.78
2023-03-04T19:31:16.578Z,35.58
2023-03-04T19:33:43.312Z,47.80
2023-03-04T19:36:10.407Z,36.45
2023-03-04T19:38:37.624Z,39.22
2023-03-04T19:41:15.752Z,42.50
2023-03-04T19:43:42.897Z,46.70
2023-03-04T19:46:10.610Z,40.33
2023-03-04T19:48:39.116Z,38.63
2023-03-04T19:51:20.977Z,38.80
2023-03-04T19:53:47.951Z,40.08
2023-03-04T19:56:14.633Z,42.78
2023-03-04T19:58:41.418Z,40.42
2023-03-04T20:01:20.351Z,41.08
2023-03-04T20:03:47.145Z,45.63
2023-03-04T20:06:13.839Z,48.47
2023-03-04T20:08:40.512Z,44.88
2023-03-04T20:11:11.466Z,46.75
2023-03-04T20:13:38.146Z,48.33
2023-03-04T20:16:09.713Z,40.92
2023-03-04T20:18:37.425Z,43.58
2023-03-04T20:21:04.386Z,35.38
2023-03-04T20:23:31.141Z,44.28
2023-03-04T20:25:58.005Z,42.55
2023-03-04T20:28:25.889Z,48.38
2023-03-04T20:30:53.654Z,45.55
2023-03-04T20:33:20.774Z,45.72
2023-03-04T20:35:47.605Z,44.85
2023-03-04T20:38:15.032Z,46.47
2023-03-04T20:40:42.433Z,42.25
2023-03-04T20:43:09.212Z,47.25
2023-03-04T20:45:38.888Z,49.42
2023-03-04T20:48:05.849Z,49.72
2023-03-04T20:50:32.529Z,42.72
2023-03-04T20:52:59.225Z,39.60
2023-03-04T20:55:27.995Z,48.67
2023-03-04T20:57:54.926Z,42.92
2023-03-04T21:00:22.113Z,43.97
2023-03-04T21:02:48.913Z,45.67
2023-03-04T21:05:15.694Z,45.13
2023-03-04T21:07:43.360Z,44.53
2023-03-04T21:10:10.588Z,44.92
2023-03-04T21:12:37.361Z,47.92
2023-03-04T21:15:04.863Z,50.30
2023-03-04T21:17:31.524Z,40.60
2023-03-04T21:19:58.180Z,42.15
2023-03-04T21:22:26.851Z,49.95
2023-03-04T21:24:53.913Z,43.58
2023-03-04T21:27:20.661Z,45.45
2023-03-04T21:29:49.327Z,49.33
2023-03-04T21:32:26.891Z,50.33
2023-03-04T21:34:55.080Z,45.47
2023-03-04T21:37:23.974Z,45.58
2023-03-04T21:39:51.162Z,47.60
2023-03-04T21:42:18.154Z,45.00
2023-03-04T21:44:49.659Z,49.05
2023-03-04T21:47:17.280Z,54.63
2023-03-04T21:49:44.047Z,49.63
2023-03-04T21:52:10.878Z,43.38
2023-03-04T21:54:37.705Z,48.17
2023-03-04T21:57:04.414Z,39.83
2023-03-04T21:59:31.106Z,48.72
2023-03-04T22:01:57.981Z,55.97
2023-03-04T22:04:24.739Z,52.95
2023-03-04T22:06:51.447Z,49.53
2023-03-04T22:09:18.222Z,49.97
2023-03-04T22:11:45.021Z,61.42
2023-03-04T22:14:11.849Z,51.90
2023-03-04T22:16:48.920Z,48.05
2023-03-04T22:19:21.499Z,51.00
2023-03-04T22:21:48.256Z,54.85
2023-03-04T22:24:14.881Z,53.38
2023-03-04T22:26:41.651Z,51.47
2023-03-04T22:29:08.426Z,55.38
2023-03-04T22:31:36.824Z,58.60
2023-03-04T22:34:12.374Z,58.78
2023-03-04T22:36:44.757Z,50.30
2023-03-04T22:39:14.188Z,57.90
2023-03-04T22:41:41.504Z,51.90
2023-03-04T22:44:08.523Z,50.65
2023-03-04T22:46:38.260Z,52.45
2023-03-04T22:49:11.277Z,56.95
2023-03-04T22:51:41.435Z,47.15
2023-03-04T22:54:13.076Z,55.85
2023-03-04T22:56:39.885Z,53.55
2023-03-04T22:59:06.718Z,54.60
2023-03-04T23:01:33.836Z,53.55
2023-03-04T23:04:00.758Z,50.08
2023-03-04T23:06:30.217Z,53.55
2023-03-04T23:08:58.663Z,51.55
2023-03-04T23:11:27.883Z,52.10
2023-03-04T23:13:55.591Z,59.67
2023-03-04T23:16:23.390Z,56.95
2023-03-04T23:18:50.741Z,57.85
2023-03-04T23:21:25.034Z,52.33
2023-03-04T23:23:52.515Z,54.95
2023-03-04T23:26:25.350Z,61.67
2023-03-04T23:28:52.513Z,54.17
2023-03-04T23:31:19.459Z,54.00
2023-03-04T23:33:48.008Z,52.72
2023-03-04T23:36:18.593Z,53.83
2023-03-04T23:38:48.283Z,65.88
2023-03-04T23:41:20.688Z,58.03
2023-03-04T23:43:48.191Z,58.65
2023-03-04T23:46:15.419Z,56.97
2023-03-04T23:48:45.725Z,58.15
2023-03-04T23:51:18.641Z,55.78
2023-03-04T23:53:45.736Z,62.90
2023-03-04T23:56:20.963Z,61.70
2023-03-04T23:58:48.056Z,52.30
